sensor_id;sensor_type;location;lat;lon;timestamp;pressure;altitude;pressure_sealevel;temperature;humidity
72110;BME280;59983;52.010;5.420;2022-07-10T00:02:18;102829.66;;;15.68;65.03
72110;BME280;59983;52.010;5.420;2022-07-10T00:04:45;102829.03;;;15.63;65.11
72110;BME280;59983;52.010;5.420;2022-07-10T00:07:11;102827.78;;;15.51;65.35
72110;BME280;59983;52.010;5.420;2022-07-10T00:09:38;102823.59;;;15.54;65.69
72110;BME280;59983;52.010;5.420;2022-07-10T00:12:04;102808.97;;;15.50;65.75
72110;BME280;59983;52.010;5.420;2022-07-10T00:14:31;102811.22;;;15.56;66.01
72110;BME280;59983;52.010;5.420;2022-07-10T00:16:58;102811.66;;;15.58;65.91
72110;BME280;59983;52.010;5.420;2022-07-10T00:19:25;102802.19;;;15.56;65.99
72110;BME280;59983;52.010;5.420;2022-07-10T00:21:51;102797.03;;;15.54;66.05
72110;BME280;59983;52.010;5.420;2022-07-10T00:24:18;102799.78;;;15.54;66.25
72110;BME280;59983;52.010;5.420;2022-07-10T00:26:44;102796.91;;;15.51;66.75
72110;BME280;59983;52.010;5.420;2022-07-10T00:29:11;102804.22;;;15.38;67.29
72110;BME280;59983;52.010;5.420;2022-07-10T00:31:37;102806.66;;;15.31;67.47
72110;BME280;59983;52.010;5.420;2022-07-10T00:34:04;102803.13;;;15.30;67.80
72110;BME280;59983;52.010;5.420;2022-07-10T00:36:30;102800.22;;;15.27;67.88
72110;BME280;59983;52.010;5.420;2022-07-10T00:38:57;102802.88;;;15.15;68.66
72110;BME280;59983;52.010;5.420;2022-07-10T00:41:23;102802.88;;;15.15;68.66
72110;BME280;59983;52.010;5.420;2022-07-10T00:43:55;102801.78;;;15.07;68.97
72110;BME280;59983;52.010;5.420;2022-07-10T00:46:22;102802.75;;;15.11;68.70
72110;BME280;59983;52.010;5.420;2022-07-10T00:48:49;102794.38;;;15.08;68.50
72110;BME280;59983;52.010;5.420;2022-07-10T00:51:17;102795.00;;;15.13;68.23
72110;BME280;59983;52.010;5.420;2022-07-10T00:53:45;102799.00;;;15.16;68.16
72110;BME280;59983;52.010;5.420;2022-07-10T00:56:12;102796.31;;;15.07;68.19
72110;BME280;59983;52.010;5.420;2022-07-10T00:58:42;102797.75;;;15.13;68.19
72110;BME280;59983;52.010;5.420;2022-07-10T01:01:09;102796.94;;;15.13;68.40
72110;BME280;59983;52.010;5.420;2022-07-10T01:03:36;102794.00;;;15.18;68.16
72110;BME280;59983;52.010;5.420;2022-07-10T01:06:03;102794.16;;;15.21;67.92
72110;BME280;59983;52.010;5.420;2022-07-10T01:08:30;102791.00;;;15.11;68.18
72110;BME280;59983;52.010;5.420;2022-07-10T01:10:57;102780.38;;;15.09;68.52
72110;BME280;59983;52.010;5.420;2022-07-10T01:13:24;102790.19;;;15.10;68.50
72110;BME280;59983;52.010;5.420;2022-07-10T01:15:51;102791.00;;;15.11;68.24
72110;BME280;59983;52.010;5.420;2022-07-10T01:18:19;102791.81;;;15.11;68.46
72110;BME280;59983;52.010;5.420;2022-07-10T01:20:46;102785.53;;;15.11;68.48
72110;BME280;59983;52.010;5.420;2022-07-10T01:23:12;102779.09;;;15.07;68.43
72110;BME280;59983;52.010;5.420;2022-07-10T01:25:38;102780.38;;;15.09;68.41
72110;BME280;59983;52.010;5.420;2022-07-10T01:28:05;102780.75;;;14.99;68.51
72110;BME280;59983;52.010;5.420;2022-07-10T01:30:32;102774.81;;;14.97;68.68
72110;BME280;59983;52.010;5.420;2022-07-10T01:32:58;102769.81;;;14.99;68.78
72110;BME280;59983;52.010;5.420;2022-07-10T01:35:25;102766.91;;;15.04;68.77
72110;BME280;59983;52.010;5.420;2022-07-10T01:37:51;102772.72;;;15.02;68.54
72110;BME280;59983;52.010;5.420;2022-07-10T01:40:18;102767.50;;;15.10;68.51
72110;BME280;59983;52.010;5.420;2022-07-10T01:42:44;102771.03;;;15.10;68.40
72110;BME280;59983;52.010;5.420;2022-07-10T01:45:12;102761.56;;;15.08;68.53
72110;BME280;59983;52.010;5.420;2022-07-10T01:47:38;102764.47;;;15.11;68.41
72110;BME280;59983;52.010;5.420;2022-07-10T01:50:05;102760.94;;;15.11;68.36
72110;BME280;59983;52.010;5.420;2022-07-10T01:52:32;102767.50;;;15.10;68.39
72110;BME280;59983;52.010;5.420;2022-07-10T01:54:59;102764.63;;;15.06;68.68
72110;BME280;59983;52.010;5.420;2022-07-10T01:57:25;102758.25;;;15.02;68.58
72110;BME280;59983;52.010;5.420;2022-07-10T01:59:52;102764.97;;;15.05;68.69
72110;BME280;59983;52.010;5.420;2022-07-10T02:02:18;102765.59;;;15.01;68.63
72110;BME280;59983;52.010;5.420;2022-07-10T02:04:45;102757.75;;;15.00;69.02
72110;BME280;59983;52.010;5.420;2022-07-10T02:07:13;102761.94;;;14.97;69.08
72110;BME280;59983;52.010;5.420;2022-07-10T02:09:41;102753.41;;;14.99;68.87
72110;BME280;59983;52.010;5.420;2022-07-10T02:12:10;102762.91;;;14.93;69.43
72110;BME280;59983;52.010;5.420;2022-07-10T02:14:37;102751.00;;;14.97;69.42
72110;BME280;59983;52.010;5.420;2022-07-10T02:17:05;102760.47;;;15.00;69.22
72110;BME280;59983;52.010;5.420;2022-07-10T02:19:32;102761.78;;;15.02;69.34
72110;BME280;59983;52.010;5.420;2022-07-10T02:21:59;102758.53;;;15.00;69.34
72110;BME280;59983;52.010;5.420;2022-07-10T02:24:26;102752.78;;;15.02;69.51
72110;BME280;59983;52.010;5.420;2022-07-10T02:26:53;102753.84;;;15.10;69.33
72110;BME280;59983;52.010;5.420;2022-07-10T02:29:21;102754.34;;;15.12;69.02
72110;BME280;59983;52.010;5.420;2022-07-10T02:31:49;102753.38;;;15.08;69.56
72110;BME280;59983;52.010;5.420;2022-07-10T02:34:16;102746.13;;;15.12;69.43
72110;BME280;59983;52.010;5.420;2022-07-10T02:36:42;102747.06;;;15.16;69.46
72110;BME280;59983;52.010;5.420;2022-07-10T02:39:09;102732.59;;;15.15;69.57
72110;BME280;59983;52.010;5.420;2022-07-10T02:41:35;102736.94;;;15.16;69.83
72110;BME280;59983;52.010;5.420;2022-07-10T02:44:02;102734.66;;;15.18;69.97
72110;BME280;59983;52.010;5.420;2022-07-10T02:46:29;102728.06;;;15.19;69.73
72110;BME280;59983;52.010;5.420;2022-07-10T02:48:56;102732.41;;;15.20;69.79
72110;BME280;59983;52.010;5.420;2022-07-10T02:51:22;102729.34;;;15.22;69.68
72110;BME280;59983;52.010;5.420;2022-07-10T02:53:49;102734.81;;;15.22;69.65
72110;BME280;59983;52.010;5.420;2022-07-10T02:56:16;102740.34;;;15.13;69.60
72110;BME280;59983;52.010;5.420;2022-07-10T02:58:42;102740.53;;;14.99;70.07
72110;BME280;59983;52.010;5.420;2022-07-10T03:01:09;102733.81;;;14.97;70.26
72110;BME280;59983;52.010;5.420;2022-07-10T03:03:35;102717.72;;;15.04;70.02
72110;BME280;59983;52.010;5.420;2022-07-10T03:06:02;102731.50;;;15.08;70.22
72110;BME280;59983;52.010;5.420;2022-07-10T03:08:29;102737.44;;;15.10;70.11
72110;BME280;59983;52.010;5.420;2022-07-10T03:10:55;102750.97;;;15.06;70.19
72110;BME280;59983;52.010;5.420;2022-07-10T03:13:22;102739.63;;;14.95;70.49
72110;BME280;59983;52.010;5.420;2022-07-10T03:15:48;102734.91;;;15.05;70.61
72110;BME280;59983;52.010;5.420;2022-07-10T03:18:15;102747.94;;;14.99;70.46
72110;BME280;59983;52.010;5.420;2022-07-10T03:20:42;102744.06;;;15.00;70.64
72110;BME280;59983;52.010;5.420;2022-07-10T03:23:08;102740.03;;;15.06;70.78
72110;BME280;59983;52.010;5.420;2022-07-10T03:25:35;102746.94;;;15.12;70.59
72110;BME280;59983;52.010;5.420;2022-07-10T03:28:01;102752.09;;;15.05;70.64
72110;BME280;59983;52.010;5.420;2022-07-10T03:30:28;102747.50;;;14.88;70.87
72110;BME280;59983;52.010;5.420;2022-07-10T03:32:55;102750.72;;;14.90;71.45
72110;BME280;59983;52.010;5.420;2022-07-10T03:35:21;102737.69;;;14.96;71.52
72110;BME280;59983;52.010;5.420;2022-07-10T03:37:47;102723.69;;;14.97;71.89
72110;BME280;59983;52.010;5.420;2022-07-10T03:40:14;102732.19;;;15.05;71.69
72110;BME280;59983;52.010;5.420;2022-07-10T03:42:41;102734.41;;;15.11;71.38
72110;BME280;59983;52.010;5.420;2022-07-10T03:45:07;102731.13;;;15.18;71.66
72110;BME280;59983;52.010;5.420;2022-07-10T03:47:34;102732.72;;;15.19;71.25
72110;BME280;59983;52.010;5.420;2022-07-10T03:50:00;102722.41;;;15.24;71.12
72110;BME280;59983;52.010;5.420;2022-07-10T03:52:27;102732.50;;;15.33;71.20
72110;BME280;59983;52.010;5.420;2022-07-10T03:54:54;102726.09;;;15.28;71.05
72110;BME280;59983;52.010;5.420;2022-07-10T03:57:21;102729.94;;;15.27;71.15
72110;BME280;59983;52.010;5.420;2022-07-10T04:00:07;102723.09;;;15.21;71.42
72110;BME280;59983;52.010;5.420;2022-07-10T04:02:34;102711.81;;;15.23;71.22
72110;BME280;59983;52.010;5.420;2022-07-10T04:05:00;102724.00;;;15.25;71.28
72110;BME280;59983;52.010;5.420;2022-07-10T04:07:27;102727.22;;;15.27;71.47
72110;BME280;59983;52.010;5.420;2022-07-10T04:09:53;102723.84;;;15.30;71.27
72110;BME280;59983;52.010;5.420;2022-07-10T04:12:20;102718.03;;;15.32;71.70
72110;BME280;59983;52.010;5.420;2022-07-10T04:14:47;102713.69;;;15.31;71.77
72110;BME280;59983;52.010;5.420;2022-07-10T04:17:18;102703.03;;;15.38;71.84
72110;BME280;59983;52.010;5.420;2022-07-10T04:19:44;102719.69;;;15.45;71.59
72110;BME280;59983;52.010;5.420;2022-07-10T04:22:12;102716.03;;;15.41;71.55
72110;BME280;59983;52.010;5.420;2022-07-10T04:24:39;102720.72;;;15.41;71.63
72110;BME280;59983;52.010;5.420;2022-07-10T04:27:05;102720.72;;;15.41;72.23
72110;BME280;59983;52.010;5.420;2022-07-10T04:29:33;102722.13;;;15.47;71.93
72110;BME280;59983;52.010;5.420;2022-07-10T04:31:59;102718.25;;;15.48;71.75
72110;BME280;59983;52.010;5.420;2022-07-10T04:34:26;102721.59;;;15.53;71.94
72110;BME280;59983;52.010;5.420;2022-07-10T04:36:52;102717.78;;;15.46;72.23
72110;BME280;59983;52.010;5.420;2022-07-10T04:39:19;102707.50;;;15.43;72.24
72110;BME280;59983;52.010;5.420;2022-07-10T04:41:45;102722.31;;;15.42;72.40
72110;BME280;59983;52.010;5.420;2022-07-10T04:44:12;102710.75;;;15.36;72.77
72110;BME280;59983;52.010;5.420;2022-07-10T04:46:38;102723.44;;;15.41;72.83
72110;BME280;59983;52.010;5.420;2022-07-10T04:49:05;102721.63;;;15.45;72.79
72110;BME280;59983;52.010;5.420;2022-07-10T04:51:32;102722.13;;;15.47;72.75
72110;BME280;59983;52.010;5.420;2022-07-10T04:53:58;102721.59;;;15.53;72.64
72110;BME280;59983;52.010;5.420;2022-07-10T04:56:25;102719.00;;;15.57;72.46
72110;BME280;59983;52.010;5.420;2022-07-10T04:58:52;102725.09;;;15.63;72.54
72110;BME280;59983;52.010;5.420;2022-07-10T05:01:19;102714.94;;;15.63;72.44
72110;BME280;59983;52.010;5.420;2022-07-10T05:03:47;102712.06;;;15.59;72.61
72110;BME280;59983;52.010;5.420;2022-07-10T05:06:14;102722.69;;;15.61;72.27
72110;BME280;59983;52.010;5.420;2022-07-10T05:08:40;102720.41;;;15.63;72.38
72110;BME280;59983;52.010;5.420;2022-07-10T05:11:07;102722.03;;;15.64;72.58
72110;BME280;59983;52.010;5.420;2022-07-10T05:13:34;102729.13;;;15.65;72.34
72110;BME280;59983;52.010;5.420;2022-07-10T05:16:00;102737.31;;;15.65;72.62
72110;BME280;59983;52.010;5.420;2022-07-10T05:18:27;102732.78;;;15.69;72.36
72110;BME280;59983;52.010;5.420;2022-07-10T05:20:53;102726.31;;;15.74;72.74
72110;BME280;59983;52.010;5.420;2022-07-10T05:23:20;102709.34;;;15.80;72.53
72110;BME280;59983;52.010;5.420;2022-07-10T05:25:47;102717.75;;;15.96;72.19
72110;BME280;59983;52.010;5.420;2022-07-10T05:28:14;102718.00;;;16.03;72.02
72110;BME280;59983;52.010;5.420;2022-07-10T05:30:41;102729.06;;;16.07;71.49
72110;BME280;59983;52.010;5.420;2022-07-10T05:33:08;102727.81;;;16.04;71.84
72110;BME280;59983;52.010;5.420;2022-07-10T05:35:34;102722.69;;;16.03;71.92
72110;BME280;59983;52.010;5.420;2022-07-10T05:38:01;102726.69;;;16.05;72.25
72110;BME280;59983;52.010;5.420;2022-07-10T05:40:28;102733.91;;;16.10;71.88
72110;BME280;59983;52.010;5.420;2022-07-10T05:42:54;102723.84;;;16.14;71.69
72110;BME280;59983;52.010;5.420;2022-07-10T05:45:21;102722.19;;;16.22;71.99
72110;BME280;59983;52.010;5.420;2022-07-10T05:47:47;102718.63;;;16.21;71.57
72110;BME280;59983;52.010;5.420;2022-07-10T05:50:14;102723.31;;;16.21;71.46
72110;BME280;59983;52.010;5.420;2022-07-10T05:52:41;102713.50;;;16.20;71.01
72110;BME280;59983;52.010;5.420;2022-07-10T05:55:08;102722.97;;;16.22;71.30
72110;BME280;59983;52.010;5.420;2022-07-10T05:57:35;102712.38;;;16.33;71.39
72110;BME280;59983;52.010;5.420;2022-07-10T06:00:03;102719.16;;;16.35;70.45
72110;BME280;59983;52.010;5.420;2022-07-10T06:02:31;102718.81;;;16.37;70.09
72110;BME280;59983;52.010;5.420;2022-07-10T06:04:58;102722.13;;;16.42;70.56
72110;BME280;59983;52.010;5.420;2022-07-10T06:07:25;102717.22;;;16.48;70.69
72110;BME280;59983;52.010;5.420;2022-07-10T06:09:51;102716.97;;;16.41;70.37
72110;BME280;59983;52.010;5.420;2022-07-10T06:12:18;102716.41;;;16.35;71.13
72110;BME280;59983;52.010;5.420;2022-07-10T06:14:44;102715.19;;;16.45;71.25
72110;BME280;59983;52.010;5.420;2022-07-10T06:17:11;102722.03;;;16.51;71.14
72110;BME280;59983;52.010;5.420;2022-07-10T06:19:37;102722.03;;;16.51;71.02
72110;BME280;59983;52.010;5.420;2022-07-10T06:22:05;102721.72;;;16.53;70.92
72110;BME280;59983;52.010;5.420;2022-07-10T06:24:51;102714.75;;;16.55;71.09
72110;BME280;59983;52.010;5.420;2022-07-10T06:27:17;102723.31;;;16.66;70.69
72110;BME280;59983;52.010;5.420;2022-07-10T06:29:43;102722.91;;;16.76;70.13
72110;BME280;59983;52.010;5.420;2022-07-10T06:32:10;102724.38;;;16.86;70.63
72110;BME280;59983;52.010;5.420;2022-07-10T06:34:37;102725.78;;;16.92;70.32
72110;BME280;59983;52.010;5.420;2022-07-10T06:37:04;102732.63;;;16.86;69.41
72110;BME280;59983;52.010;5.420;2022-07-10T06:39:34;102726.91;;;16.79;69.63
72110;BME280;59983;52.010;5.420;2022-07-10T06:42:05;102732.63;;;16.86;70.22
72110;BME280;59983;52.010;5.420;2022-07-10T06:44:32;102728.50;;;16.80;69.23
72110;BME280;59983;52.010;5.420;2022-07-10T06:46:58;102727.03;;;16.70;69.67
72110;BME280;59983;52.010;5.420;2022-07-10T06:49:45;102714.69;;;16.76;69.53
72110;BME280;59983;52.010;5.420;2022-07-10T06:52:12;102726.91;;;16.79;69.88
72110;BME280;59983;52.010;5.420;2022-07-10T06:54:40;102724.97;;;16.91;69.72
72110;BME280;59983;52.010;5.420;2022-07-10T06:57:07;102727.38;;;16.81;69.37
72110;BME280;59983;52.010;5.420;2022-07-10T06:59:34;102725.63;;;16.76;69.54
72110;BME280;59983;52.010;5.420;2022-07-10T07:02:01;102724.19;;;16.79;69.48
72110;BME280;59983;52.010;5.420;2022-07-10T07:04:28;102729.66;;;16.79;69.32
72110;BME280;59983;52.010;5.420;2022-07-10T07:06:54;102725.97;;;16.75;69.19
72110;BME280;59983;52.010;5.420;2022-07-10T07:09:21;102727.81;;;16.70;69.97
72110;BME280;59983;52.010;5.420;2022-07-10T07:11:47;102723.13;;;16.71;69.86
72110;BME280;59983;52.010;5.420;2022-07-10T07:14:14;102720.16;;;16.76;69.98
72110;BME280;59983;52.010;5.420;2022-07-10T07:16:41;102729.19;;;16.77;69.72
72110;BME280;59983;52.010;5.420;2022-07-10T07:19:24;102729.66;;;16.79;69.84
72110;BME280;59983;52.010;5.420;2022-07-10T07:22:00;102733.09;;;16.88;69.63
72110;BME280;59983;52.010;5.420;2022-07-10T07:24:52;102740.72;;;16.82;69.02
72110;BME280;59983;52.010;5.420;2022-07-10T07:27:18;102729.41;;;16.96;69.23
72110;BME280;59983;52.010;5.420;2022-07-10T07:29:45;102735.72;;;17.09;68.77
72110;BME280;59983;52.010;5.420;2022-07-10T07:32:11;102727.50;;;17.09;68.10
72110;BME280;59983;52.010;5.420;2022-07-10T07:34:38;102729.78;;;17.07;68.95
72110;BME280;59983;52.010;5.420;2022-07-10T07:37:04;102729.75;;;17.19;69.26
72110;BME280;59983;52.010;5.420;2022-07-10T07:39:31;102730.69;;;17.23;68.69
72110;BME280;59983;52.010;5.420;2022-07-10T07:41:59;102726.69;;;17.33;68.18
72110;BME280;59983;52.010;5.420;2022-07-10T07:44:26;102733.38;;;17.47;68.22
72110;BME280;59983;52.010;5.420;2022-07-10T07:46:55;102733.03;;;17.49;67.63
72110;BME280;59983;52.010;5.420;2022-07-10T07:49:22;102728.25;;;17.58;67.51
72110;BME280;59983;52.010;5.420;2022-07-10T07:51:48;102728.44;;;17.77;67.80
72110;BME280;59983;52.010;5.420;2022-07-10T07:54:15;102731.06;;;17.86;67.27
72110;BME280;59983;52.010;5.420;2022-07-10T07:56:42;102727.28;;;17.78;66.15
72110;BME280;59983;52.010;5.420;2022-07-10T07:59:09;102722.84;;;17.74;66.16
72110;BME280;59983;52.010;5.420;2022-07-10T08:01:37;102722.94;;;17.65;66.29
72110;BME280;59983;52.010;5.420;2022-07-10T08:04:03;102721.78;;;17.66;66.32
72110;BME280;59983;52.010;5.420;2022-07-10T08:06:36;102727.09;;;17.71;66.82
72110;BME280;59983;52.010;5.420;2022-07-10T08:09:02;102729.34;;;17.81;67.21
72110;BME280;59983;52.010;5.420;2022-07-10T08:11:29;102733.22;;;17.80;66.84
72110;BME280;59983;52.010;5.420;2022-07-10T08:13:56;102733.38;;;17.72;67.55
72110;BME280;59983;52.010;5.420;2022-07-10T08:16:23;102735.66;;;17.70;67.48
72110;BME280;59983;52.010;5.420;2022-07-10T08:18:49;102728.22;;;17.70;67.30
72110;BME280;59983;52.010;5.420;2022-07-10T08:21:17;102733.47;;;17.63;67.05
72110;BME280;59983;52.010;5.420;2022-07-10T08:23:43;102734.63;;;17.62;67.13
72110;BME280;59983;52.010;5.420;2022-07-10T08:26:10;102728.91;;;17.67;66.92
72110;BME280;59983;52.010;5.420;2022-07-10T08:28:36;102738.63;;;17.65;67.02
72110;BME280;59983;52.010;5.420;2022-07-10T08:31:04;102741.47;;;17.68;66.92
72110;BME280;59983;52.010;5.420;2022-07-10T08:33:30;102740.81;;;17.59;67.19
72110;BME280;59983;52.010;5.420;2022-07-10T08:35:57;102731.56;;;17.51;67.27
72110;BME280;59983;52.010;5.420;2022-07-10T08:38:46;102735.91;;;17.52;67.26
72110;BME280;59983;52.010;5.420;2022-07-10T08:41:13;102733.50;;;17.51;67.78
72110;BME280;59983;52.010;5.420;2022-07-10T08:43:40;102726.75;;;17.61;67.31
72110;BME280;59983;52.010;5.420;2022-07-10T08:46:11;102731.06;;;17.74;68.36
72110;BME280;59983;52.010;5.420;2022-07-10T08:48:40;102733.59;;;17.79;67.70
72110;BME280;59983;52.010;5.420;2022-07-10T08:51:10;102727.50;;;17.86;67.16
72110;BME280;59983;52.010;5.420;2022-07-10T08:53:41;102730.00;;;17.91;67.68
72110;BME280;59983;52.010;5.420;2022-07-10T08:56:07;102729.75;;;17.96;66.76
72110;BME280;59983;52.010;5.420;2022-07-10T08:58:36;102731.59;;;17.92;66.37
72110;BME280;59983;52.010;5.420;2022-07-10T09:01:03;102719.22;;;17.98;66.47
72110;BME280;59983;52.010;5.420;2022-07-10T09:03:30;102721.56;;;18.11;65.36
72110;BME280;59983;52.010;5.420;2022-07-10T09:05:57;102722.00;;;18.14;64.31
72110;BME280;59983;52.010;5.420;2022-07-10T09:08:25;102721.66;;;18.15;65.78
72110;BME280;59983;52.010;5.420;2022-07-10T09:11:13;102719.91;;;18.23;65.92
72110;BME280;59983;52.010;5.420;2022-07-10T09:13:53;102717.53;;;18.37;65.39
72110;BME280;59983;52.010;5.420;2022-07-10T09:16:25;102713.31;;;18.55;64.25
72110;BME280;59983;52.010;5.420;2022-07-10T09:18:52;102713.41;;;18.59;63.80
72110;BME280;59983;52.010;5.420;2022-07-10T09:21:19;102715.56;;;18.65;63.23
72110;BME280;59983;52.010;5.420;2022-07-10T09:23:54;102706.66;;;18.56;63.48
72110;BME280;59983;52.010;5.420;2022-07-10T09:26:21;102707.91;;;18.59;63.02
72110;BME280;59983;52.010;5.420;2022-07-10T09:29:04;102700.09;;;18.61;63.20
72110;BME280;59983;52.010;5.420;2022-07-10T09:31:48;102705.81;;;18.68;62.19
72110;BME280;59983;52.010;5.420;2022-07-10T09:34:14;102707.31;;;18.65;62.59
72110;BME280;59983;52.010;5.420;2022-07-10T09:36:41;102708.63;;;18.72;63.61
72110;BME280;59983;52.010;5.420;2022-07-10T09:39:07;102711.28;;;18.68;64.49
72110;BME280;59983;52.010;5.420;2022-07-10T09:41:35;102704.81;;;18.76;63.88
72110;BME280;59983;52.010;5.420;2022-07-10T09:44:03;102698.53;;;18.76;64.28
72110;BME280;59983;52.010;5.420;2022-07-10T09:46:35;102695.59;;;19.00;64.31
72110;BME280;59983;52.010;5.420;2022-07-10T09:51:43;102686.84;;;19.14;61.85
72110;BME280;59983;52.010;5.420;2022-07-10T09:54:15;102692.53;;;19.21;61.42
72110;BME280;59983;52.010;5.420;2022-07-10T09:56:50;102686.28;;;19.24;61.96
72110;BME280;59983;52.010;5.420;2022-07-10T09:59:19;102685.72;;;19.34;61.16
72110;BME280;59983;52.010;5.420;2022-07-10T10:01:50;102689.00;;;19.40;60.20
72110;BME280;59983;52.010;5.420;2022-07-10T10:04:22;102687.03;;;19.56;60.62
72110;BME280;59983;52.010;5.420;2022-07-10T10:06:54;102682.84;;;19.62;59.23
72110;BME280;59983;52.010;5.420;2022-07-10T10:09:26;102680.19;;;19.69;59.60
72110;BME280;59983;52.010;5.420;2022-07-10T10:11:59;102685.94;;;19.80;60.31
72110;BME280;59983;52.010;5.420;2022-07-10T10:14:29;102687.69;;;19.88;61.05
72110;BME280;59983;52.010;5.420;2022-07-10T10:16:56;102679.47;;;19.92;60.10
72110;BME280;59983;52.010;5.420;2022-07-10T10:19:23;102674.75;;;19.92;59.17
72110;BME280;59983;52.010;5.420;2022-07-10T10:22:09;102676.06;;;19.98;59.12
72110;BME280;59983;52.010;5.420;2022-07-10T10:24:42;102668.28;;;20.23;57.83
72110;BME280;59983;52.010;5.420;2022-07-10T10:27:09;102673.28;;;20.18;58.72
72110;BME280;59983;52.010;5.420;2022-07-10T10:29:37;102675.13;;;20.33;59.40
72110;BME280;59983;52.010;5.420;2022-07-10T10:32:07;102677.50;;;20.34;58.30
72110;BME280;59983;52.010;5.420;2022-07-10T10:34:41;102675.59;;;20.16;58.65
72110;BME280;59983;52.010;5.420;2022-07-10T10:39:54;102672.97;;;20.23;58.54
72110;BME280;59983;52.010;5.420;2022-07-10T10:42:43;102670.84;;;20.35;58.68
72110;BME280;59983;52.010;5.420;2022-07-10T10:48:04;102670.03;;;20.35;58.41
72110;BME280;59983;52.010;5.420;2022-07-10T10:50:52;102658.94;;;20.31;57.41
72110;BME280;59983;52.010;5.420;2022-07-10T10:53:27;102659.75;;;20.55;58.68
72110;BME280;59983;52.010;5.420;2022-07-10T10:58:46;102659.75;;;20.55;59.14
72110;BME280;59983;52.010;5.420;2022-07-10T11:06:50;102666.28;;;20.43;58.40
72110;BME280;59983;52.010;5.420;2022-07-10T11:14:45;102677.53;;;19.92;59.33
72110;BME280;59983;52.010;5.420;2022-07-10T11:17:14;102675.69;;;20.00;59.37
72110;BME280;59983;52.010;5.420;2022-07-10T11:19:40;102676.94;;;19.83;58.83
72110;BME280;59983;52.010;5.420;2022-07-10T11:30:20;102663.81;;;19.96;59.66
72110;BME280;59983;52.010;5.420;2022-07-10T11:32:47;102658.50;;;20.06;58.34
72110;BME280;59983;52.010;5.420;2022-07-10T11:35:15;102668.28;;;20.04;59.12
72110;BME280;59983;52.010;5.420;2022-07-10T11:37:52;102662.69;;;20.20;59.99
72110;BME280;59983;52.010;5.420;2022-07-10T11:40:20;102658.34;;;20.42;58.60
72110;BME280;59983;52.010;5.420;2022-07-10T11:42:54;102667.13;;;20.47;58.58
72110;BME280;59983;52.010;5.420;2022-07-10T11:45:28;102655.78;;;20.52;57.85
72110;BME280;59983;52.010;5.420;2022-07-10T11:47:56;102662.16;;;20.56;57.95
72110;BME280;59983;52.010;5.420;2022-07-10T11:50:24;102658.75;;;20.67;56.89
72110;BME280;59983;52.010;5.420;2022-07-10T11:52:51;102668.75;;;20.75;55.82
72110;BME280;59983;52.010;5.420;2022-07-10T11:55:20;102657.09;;;20.58;55.80
72110;BME280;59983;52.010;5.420;2022-07-10T11:57:47;102656.16;;;20.51;55.70
72110;BME280;59983;52.010;5.420;2022-07-10T12:00:30;102658.00;;;20.43;56.42
72110;BME280;59983;52.010;5.420;2022-07-10T12:03:16;102657.56;;;20.41;55.89
72110;BME280;59983;52.010;5.420;2022-07-10T12:05:42;102644.34;;;20.50;55.62
72110;BME280;59983;52.010;5.420;2022-07-10T12:08:09;102655.69;;;20.72;56.70
72110;BME280;59983;52.010;5.420;2022-07-10T12:10:35;102652.16;;;20.71;55.28
72110;BME280;59983;52.010;5.420;2022-07-10T12:13:04;102643.63;;;20.80;54.12
72110;BME280;59983;52.010;5.420;2022-07-10T12:15:35;102639.25;;;21.05;56.64
72110;BME280;59983;52.010;5.420;2022-07-10T12:18:08;102649.22;;;21.40;55.38
72110;BME280;59983;52.010;5.420;2022-07-10T12:20:35;102637.16;;;21.55;53.84
72110;BME280;59983;52.010;5.420;2022-07-10T12:23:04;102644.06;;;21.72;54.26
72110;BME280;59983;52.010;5.420;2022-07-10T12:25:31;102639.31;;;21.72;52.65
72110;BME280;59983;52.010;5.420;2022-07-10T12:27:58;102640.84;;;21.66;52.20
72110;BME280;59983;52.010;5.420;2022-07-10T12:30:47;102643.06;;;21.54;54.19
72110;BME280;59983;52.010;5.420;2022-07-10T12:33:22;102643.25;;;21.38;53.28
72110;BME280;59983;52.010;5.420;2022-07-10T12:38:18;102638.72;;;21.23;53.14
72110;BME280;59983;52.010;5.420;2022-07-10T12:40:46;102646.88;;;21.15;54.07
72110;BME280;59983;52.010;5.420;2022-07-10T12:43:24;102652.28;;;21.35;54.77
72110;BME280;59983;52.010;5.420;2022-07-10T12:46:20;102637.72;;;21.38;53.12
72110;BME280;59983;52.010;5.420;2022-07-10T12:49:07;102645.72;;;21.46;52.47
72110;BME280;59983;52.010;5.420;2022-07-10T12:51:44;102641.75;;;21.44;51.95
72110;BME280;59983;52.010;5.420;2022-07-10T12:54:35;102640.88;;;21.70;51.95
72110;BME280;59983;52.010;5.420;2022-07-10T12:57:03;102645.00;;;21.83;50.75
72110;BME280;59983;52.010;5.420;2022-07-10T12:59:35;102649.78;;;21.90;50.40
72110;BME280;59983;52.010;5.420;2022-07-10T13:02:17;102633.69;;;21.99;49.96
72110;BME280;59983;52.010;5.420;2022-07-10T13:04:54;102641.06;;;21.88;50.19
72110;BME280;59983;52.010;5.420;2022-07-10T13:07:34;102637.34;;;21.73;49.93
72110;BME280;59983;52.010;5.420;2022-07-10T13:10:04;102628.84;;;21.52;51.28
72110;BME280;59983;52.010;5.420;2022-07-10T13:12:32;102632.81;;;21.54;50.82
72110;BME280;59983;52.010;5.420;2022-07-10T13:14:59;102630.31;;;21.75;50.89
72110;BME280;59983;52.010;5.420;2022-07-10T13:17:26;102641.88;;;21.88;50.71
72110;BME280;59983;52.010;5.420;2022-07-10T13:19:52;102628.75;;;22.15;51.12
72110;BME280;59983;52.010;5.420;2022-07-10T13:22:19;102624.22;;;22.41;49.79
72110;BME280;59983;52.010;5.420;2022-07-10T13:24:46;102630.28;;;22.57;49.55
72110;BME280;59983;52.010;5.420;2022-07-10T13:27:12;102616.97;;;22.73;50.14
72110;BME280;59983;52.010;5.420;2022-07-10T13:29:39;102623.38;;;22.84;49.10
72110;BME280;59983;52.010;5.420;2022-07-10T13:32:05;102624.31;;;23.10;50.71